Time;durP1;ratioP1;P1;durP2;ratioP2;P2;SDS_P1;SDS_P2;PMS_P1;PMS_P2;Temp;Humidity;BMP_temperature;BMP_pressure;BME280_temperature;BME280_humidity;BME280_pressure;Samples;Min_cycle;Max_cycle;Signal;HPM_P1;HPM_P2
2021/06/18 00:02:25;;;;;;;14.58;12.25;;;;;;;20.84;79.23;100376.14;2707728;87;21087;-68
2021/06/18 00:06:27;;;;;;;16.35;12.85;;;;;;;20.90;79.13;100369.96;2707548;88;21091;-68
2021/06/18 00:10:30;;;;;;;14.03;12.63;;;;;;;20.94;78.97;100368.54;2707514;88;21040;-68
2021/06/18 00:14:32;;;;;;;13.98;12.65;;;;;;;20.96;78.89;100365.66;2708055;88;21091;-68
2021/06/18 00:18:34;;;;;;;15.93;11.70;;;;;;;20.97;78.79;100364.09;2707924;88;20972;-68
2021/06/18 00:22:37;;;;;;;13.05;11.70;;;;;;;20.98;78.59;100373.06;2707405;88;21055;-68
2021/06/18 00:26:39;;;;;;;19.67;12.63;;;;;;;20.96;78.48;100373.77;2707155;88;21083;-68
2021/06/18 00:30:42;;;;;;;15.25;12.93;;;;;;;20.90;78.49;100369.96;2707002;88;21015;-68
2021/06/18 00:34:45;;;;;;;15.28;11.88;;;;;;;20.76;78.97;100373.52;2706496;88;21080;-68
2021/06/18 00:38:47;;;;;;;17.85;13.08;;;;;;;20.64;79.53;100369.13;2707157;87;21047;-68
2021/06/18 00:42:48;;;;;;;19.75;12.80;;;;;;;20.61;79.72;100367.62;2707264;88;21055;-68
2021/06/18 00:46:51;;;;;;;17.48;12.50;;;;;;;20.59;79.87;100364.28;2706868;88;21106;-68
2021/06/18 00:50:53;;;;;;;14.40;12.95;;;;;;;20.48;80.22;100355.33;2707481;88;21048;-68
2021/06/18 00:54:55;;;;;;;17.07;13.00;;;;;;;20.44;80.36;100357.56;2707396;87;21027;-68
2021/06/18 00:58:58;;;;;;;15.15;13.15;;;;;;;20.25;80.87;100364.41;2706683;88;21687;-68
2021/06/18 01:03:00;;;;;;;21.02;14.78;;;;;;;20.07;81.70;100358.02;2704859;87;21019;-68
2021/06/18 01:07:30;;;;;;;18.00;14.68;;;;;;;19.91;82.40;100353.62;2707281;88;21047;-68
2021/06/18 01:11:59;;;;;;;24.90;16.35;;;;;;;19.96;82.74;100355.27;2693377;88;21051;-68
2021/06/18 01:16:34;;;;;;;17.37;13.38;;;;;;;20.07;82.51;100352.13;2703142;87;21044;-68
2021/06/18 01:21:02;;;;;;;14.53;13.03;;;;;;;20.14;81.97;100364.87;2706988;88;21072;-68
2021/06/18 01:25:18;;;;;;;18.42;13.83;;;;;;;20.06;81.93;100357.20;2676777;88;21035;-67
2021/06/18 01:29:20;;;;;;;;;;;;;;;20.00;82.29;100364.67;2709642;88;21052;-67
2021/06/18 01:33:24;;;;;;;17.42;15.55;;;;;;;20.00;82.23;100361.97;2707410;88;20112;-68
2021/06/18 01:37:30;;;;;;;23.92;15.58;;;;;;;19.77;82.99;100365.56;2706941;88;21032;-68
2021/06/18 01:41:33;;;;;;;18.12;15.60;;;;;;;19.59;83.89;100360.53;2706635;88;21119;-68
2021/06/18 01:45:37;;;;;;;19.57;13.95;;;;;;;19.36;84.26;100356.02;2706575;88;21122;-68
2021/06/18 01:49:40;;;;;;;18.25;16.35;;;;;;;19.14;85.17;100352.31;2706505;88;21106;-68
2021/06/18 01:53:44;;;;;;;20.27;17.12;;;;;;;19.08;86.25;100351.17;2706719;88;21051;-68
2021/06/18 01:57:48;;;;;;;19.67;17.35;;;;;;;19.06;86.77;100347.83;2706707;88;21466;-68
2021/06/18 02:01:51;;;;;;;19.07;16.50;;;;;;;19.03;87.05;100341.94;2706178;88;21000;-68
2021/06/18 02:05:57;;;;;;;18.62;15.80;;;;;;;18.96;87.52;100344.48;2706662;88;21076;-68
2021/06/18 02:10:04;;;;;;;18.12;16.35;;;;;;;18.90;87.83;100342.02;2706633;87;21090;-68
2021/06/18 02:14:13;;;;;;;18.62;16.02;;;;;;;18.98;87.55;100343.83;2706431;88;21043;-68
2021/06/18 02:18:20;;;;;;;17.70;15.70;;;;;;;19.05;87.04;100342.11;2706165;88;21031;-68
2021/06/18 02:22:24;;;;;;;28.70;18.10;;;;;;;19.01;87.12;100346.68;2706371;88;21055;-68
2021/06/18 02:26:27;;;;;;;22.32;16.85;;;;;;;18.94;87.51;100345.17;2706619;88;21051;-68
2021/06/18 02:30:29;;;;;;;22.77;17.20;;;;;;;18.93;87.46;100353.79;2706610;88;21066;-68
2021/06/18 02:34:36;;;;;;;22.52;18.48;;;;;;;18.85;87.58;100349.78;2706351;88;21044;-68
2021/06/18 02:38:37;;;;;;;19.42;16.65;;;;;;;18.76;87.90;100354.38;2706407;88;21051;-68
2021/06/18 02:42:39;;;;;;;24.35;16.73;;;;;;;18.74;87.91;100355.60;2706302;87;21031;-68
2021/06/18 02:47:09;;;;;;;23.32;18.35;;;;;;;18.69;87.97;100363.72;2706080;88;21159;-68
2021/06/18 02:51:51;;;;;;;25.68;17.02;;;;;;;18.67;87.97;100359.02;2704943;88;21055;-68
2021/06/18 02:56:00;;;;;;;21.17;18.85;;;;;;;18.68;87.92;100367.92;2706296;88;21040;-68
2021/06/18 03:00:07;;;;;;;19.90;16.32;;;;;;;18.63;87.85;100372.48;2706278;88;21107;-68
2021/06/18 03:04:21;;;;;;;20.15;17.30;;;;;;;18.62;88.06;100378.06;2706160;87;21039;-69
2021/06/18 03:08:29;;;;;;;24.12;18.23;;;;;;;18.62;88.25;100385.63;2706401;88;21062;-69
2021/06/18 03:12:33;;;;;;;22.52;18.55;;;;;;;18.68;88.11;100390.33;2706372;88;21126;-70
2021/06/18 03:16:38;;;;;;;21.10;17.07;;;;;;;18.77;87.82;100383.53;2706046;88;21107;-69
2021/06/18 03:20:41;;;;;;;29.23;19.95;;;;;;;18.88;87.46;100389.87;2706900;88;21035;-69
2021/06/18 03:24:46;;;;;;;25.77;18.87;;;;;;;18.96;87.34;100395.20;2706580;88;21063;-69
2021/06/18 03:28:48;;;;;;;22.55;18.98;;;;;;;19.07;87.03;100396.67;2707052;88;21095;-69
2021/06/18 03:32:52;;;;;;;23.32;18.82;;;;;;;19.24;86.80;100394.69;2706492;88;21494;-69
2021/06/18 03:36:55;;;;;;;21.45;17.73;;;;;;;19.43;85.99;100392.52;2685253;88;21027;-69
2021/06/18 03:40:57;;;;;;;19.62;17.57;;;;;;;19.44;85.87;100388.80;2706460;88;21071;-69
2021/06/18 03:45:00;;;;;;;21.77;17.75;;;;;;;19.47;85.86;100388.45;2706342;88;21660;-69
2021/06/18 03:49:02;;;;;;;21.40;19.00;;;;;;;19.55;85.71;100394.27;2706698;88;21446;-69
2021/06/18 03:53:04;;;;;;;20.95;18.55;;;;;;;19.62;85.58;100394.38;2707112;87;21040;-69
2021/06/18 03:57:08;;;;;;;19.27;17.23;;;;;;;19.69;85.60;100400.73;2706674;88;21078;-69
2021/06/18 04:01:12;;;;;;;24.57;19.30;;;;;;;19.82;85.30;100396.87;2707022;88;21012;-69
2021/06/18 04:05:17;;;;;;;29.52;17.92;;;;;;;19.94;85.13;100393.77;2706684;88;21051;-69
2021/06/18 04:09:19;;;;;;;21.85;17.35;;;;;;;20.06;84.93;100393.65;2707348;88;21023;-69
2021/06/18 04:13:22;;;;;;;23.90;18.90;;;;;;;20.16;84.66;100391.16;2706703;88;21012;-69
2021/06/18 04:17:25;;;;;;;24.63;20.08;;;;;;;20.31;84.52;100392.00;2706980;88;21657;-69
2021/06/18 04:21:28;;;;;;;21.68;19.30;;;;;;;20.57;84.11;100392.00;2706963;88;21032;-69
2021/06/18 04:25:32;;;;;;;22.67;17.45;;;;;;;20.93;83.54;100393.91;2707118;87;21083;-69
2021/06/18 04:29:33;;;;;;;23.92;17.37;;;;;;;21.63;81.98;100397.34;2707602;88;21100;-69
2021/06/18 04:33:36;;;;;;;19.70;17.60;;;;;;;22.39;79.28;100393.04;2707848;88;21034;-69
2021/06/18 04:37:42;;;;;;;22.98;17.35;;;;;;;23.25;76.39;100381.34;2707890;87;21028;-69
2021/06/18 04:41:43;;;;;;;20.43;15.23;;;;;;;23.90;72.89;100379.00;2708807;88;21043;-69
2021/06/18 04:45:45;;;;;;;19.35;14.93;;;;;;;24.32;70.65;100390.95;2697283;86;21054;-69
2021/06/18 04:49:47;;;;;;;21.23;16.82;;;;;;;24.62;69.39;100395.83;2681040;87;21554;-69
2021/06/18 04:53:54;;;;;;;21.57;18.23;;;;;;;25.11;68.86;100383.95;2680360;88;21091;-69
2021/06/18 04:57:56;;;;;;;20.62;16.05;;;;;;;25.98;67.81;100390.58;2683686;87;21071;-69
2021/06/18 05:01:57;;;;;;;27.13;17.10;;;;;;;26.78;64.55;100388.78;2685806;87;21063;-69
2021/06/18 05:06:09;;;;;;;18.60;15.20;;;;;;;27.44;62.36;100387.20;2685086;88;21541;-69
2021/06/18 05:10:12;;;;;;;22.17;16.42;;;;;;;27.78;60.45;100379.27;2692370;88;20988;-68
2021/06/18 05:14:15;;;;;;;16.20;14.47;;;;;;;27.89;60.24;100372.13;2695364;87;21088;-68
2021/06/18 05:18:16;;;;;;;19.27;14.20;;;;;;;28.00;59.54;100371.81;2695399;88;21028;-68
2021/06/18 05:22:18;;;;;;;16.57;13.30;;;;;;;28.07;59.44;100371.98;2695430;88;21056;-68
2021/06/18 05:26:35;;;;;;;15.78;13.60;;;;;;;28.33;59.44;100373.93;2695729;88;21012;-68
2021/06/18 05:30:37;;;;;;;17.05;15.18;;;;;;;28.66;58.34;100371.55;2695887;88;21024;-68
2021/06/18 05:34:40;;;;;;;20.43;14.45;;;;;;;28.61;58.53;100375.01;2695745;88;21016;-68
2021/06/18 05:38:42;;;;;;;19.62;12.93;;;;;;;28.69;58.15;100370.20;2696092;88;20985;-68
2021/06/18 05:42:44;;;;;;;18.40;14.10;;;;;;;28.75;58.10;100371.43;2695910;88;21549;-68
2021/06/18 05:46:46;;;;;;;13.32;11.43;;;;;;;28.92;57.49;100381.09;2695723;88;21109;-68
2021/06/18 05:50:48;;;;;;;19.75;13.32;;;;;;;28.67;58.21;100379.20;2695641;88;21080;-69
2021/06/18 05:54:55;;;;;;;19.00;12.85;;;;;;;28.44;59.58;100377.70;2695882;88;21084;-68
2021/06/18 05:58:57;;;;;;;13.43;11.25;;;;;;;28.80;58.74;100389.89;2696287;88;21021;-69
2021/06/18 06:03:00;;;;;;;14.25;12.82;;;;;;;28.91;58.69;100389.02;2696239;88;21052;-67
2021/06/18 06:07:07;;;;;;;13.38;11.57;;;;;;;28.92;58.29;100387.94;2695886;88;21048;-67
2021/06/18 06:11:10;;;;;;;12.58;11.33;;;;;;;28.89;59.00;100388.95;2695977;88;21070;-67
2021/06/18 06:15:14;;;;;;;14.35;12.95;;;;;;;28.95;58.55;100383.86;2695759;88;21049;-67
2021/06/18 06:19:16;;;;;;;16.67;13.17;;;;;;;29.01;59.67;100386.16;2696712;88;21087;-68
2021/06/18 06:23:18;;;;;;;14.40;11.88;;;;;;;29.45;59.46;100379.52;2696148;88;21044;-68
2021/06/18 06:27:19;;;;;;;32.95;12.93;;;;;;;29.74;58.36;100380.78;2696148;88;21031;-69
2021/06/18 06:31:21;;;;;;;17.98;12.50;;;;;;;30.00;57.77;100381.69;2696375;88;21036;-68
2021/06/18 06:35:24;;;;;;;12.37;10.35;;;;;;;29.95;57.69;100385.70;2696108;87;21028;-69
2021/06/18 06:39:26;;;;;;;13.22;10.70;;;;;;;30.09;56.91;100383.48;2696327;88;21024;-68
2021/06/18 06:43:28;;;;;;;23.60;12.95;;;;;;;29.83;57.77;100383.08;2696155;88;21058;-68
2021/06/18 06:47:29;;;;;;;13.13;9.60;;;;;;;29.88;58.30;100362.05;2696679;88;21105;-68
2021/06/18 06:51:31;;;;;;;11.75;10.28;;;;;;;30.34;56.48;100383.79;2698912;86;21108;-68
2021/06/18 06:55:36;;;;;;;12.65;9.98;;;;;;;30.59;55.93;100379.67;2691008;86;21052;-67
2021/06/18 06:59:37;;;;;;;10.70;8.85;;;;;;;30.84;56.34;100381.61;2699777;86;21059;-66
2021/06/18 07:03:40;;;;;;;10.35;9.45;;;;;;;30.77;57.23;100374.95;2687975;86;21032;-67
2021/06/18 07:07:42;;;;;;;14.47;9.38;;;;;;;30.88;57.78;100372.59;2699812;86;21021;-69
2021/06/18 07:11:44;;;;;;;13.18;10.18;;;;;;;31.39;56.68;100380.19;2700827;88;21008;-69
2021/06/18 07:15:46;;;;;;;9.55;8.55;;;;;;;31.62;54.25;100372.08;2700679;88;21094;-70
2021/06/18 07:19:49;;;;;;;9.23;8.28;;;;;;;31.72;53.10;100369.94;2700903;88;21016;-69
2021/06/18 07:23:50;;;;;;;10.40;8.95;;;;;;;31.82;52.51;100365.92;2700841;88;21123;-70
2021/06/18 07:27:52;;;;;;;15.20;8.70;;;;;;;31.83;52.91;100361.23;2700684;88;20992;-68
2021/06/18 07:31:55;;;;;;;14.47;9.33;;;;;;;31.90;53.35;100359.91;2701134;88;21048;-67
2021/06/18 07:36:06;;;;;;;13.00;9.75;;;;;;;31.95;53.68;100354.98;2699953;88;20997;-69
2021/06/18 07:40:11;;;;;;;10.25;8.55;;;;;;;32.02;53.52;100356.12;2700564;88;21096;-70
2021/06/18 07:44:15;;;;;;;8.88;7.97;;;;;;;32.00;53.95;100356.38;2700462;88;21585;-67
2021/06/18 07:48:16;;;;;;;10.05;8.73;;;;;;;32.18;53.24;100354.25;2707605;87;21158;-69
2021/06/18 07:52:18;;;;;;;9.50;8.38;;;;;;;32.32;51.35;100348.53;2716130;87;21672;-69
2021/06/18 07:56:28;;;;;;;8.73;7.85;;;;;;;32.31;51.35;100344.12;2716163;87;21028;-69
2021/06/18 08:00:29;;;;;;;7.95;7.15;;;;;;;32.49;50.60;100346.13;2716077;87;21091;-70
2021/06/18 08:04:32;;;;;;;12.25;7.72;;;;;;;32.60;50.90;100342.28;2716358;86;21628;-70
2021/06/18 08:08:33;;;;;;;13.40;6.97;;;;;;;32.67;50.37;100343.96;2716264;87;21016;-69
2021/06/18 08:12:36;;;;;;;10.60;7.55;;;;;;;32.79;49.73;100343.70;2716400;87;21059;-69
2021/06/18 08:16:39;;;;;;;10.98;7.92;;;;;;;32.67;49.59;100343.39;2716276;87;21015;-69
2021/06/18 08:20:40;;;;;;;10.82;8.05;;;;;;;32.62;50.15;100335.98;2716433;87;21110;-69
2021/06/18 08:24:45;;;;;;;8.80;7.90;;;;;;;32.66;50.78;100350.00;2716270;87;21003;-69
2021/06/18 08:28:47;;;;;;;8.40;7.55;;;;;;;32.61;51.34;100341.17;2716515;87;21064;-71
2021/06/18 08:32:48;;;;;;;8.50;7.62;;;;;;;32.75;51.50;100340.12;2716264;87;21063;-70
2021/06/18 08:36:52;;;;;;;7.37;6.67;;;;;;;32.87;49.84;100345.36;2717185;87;21075;-70
2021/06/18 08:40:54;;;;;;;7.10;6.40;;;;;;;32.90;50.65;100336.58;2715834;86;21071;-70
2021/06/18 08:44:56;;;;;;;11.40;8.68;;;;;;;33.00;49.79;100336.28;2713056;87;21051;-69
2021/06/18 08:48:57;;;;;;;10.38;7.65;;;;;;;33.05;49.40;100334.36;2710185;87;21018;-69
2021/06/18 08:53:02;;;;;;;8.45;6.87;;;;;;;33.24;48.83;100338.50;2693804;86;21076;-69
2021/06/18 08:57:06;;;;;;;9.40;8.43;;;;;;;33.30;49.61;100334.63;2699844;86;21072;-69
2021/06/18 09:01:08;;;;;;;11.73;8.43;;;;;;;33.29;49.00;100332.97;2688794;86;21072;-69
2021/06/18 09:05:23;;;;;;;21.27;19.10;;;;;;;33.25;49.53;100323.05;2692668;86;21004;-69
2021/06/18 09:09:28;;;;;;;20.10;18.17;;;;;;;33.18;48.30;100330.22;2697912;86;21050;-69
2021/06/18 09:13:31;;;;;;;9.98;6.92;;;;;;;33.21;48.04;100317.82;2649892;88;21065;-69
2021/06/18 09:17:37;;;;;;;6.87;6.23;;;;;;;33.29;48.18;100310.92;2633376;88;21060;-69
2021/06/18 09:21:39;;;;;;;9.43;6.55;;;;;;;33.30;46.86;100296.04;2597419;91;21039;-69
2021/06/18 09:25:48;;;;;;;8.40;6.62;;;;;;;33.27;47.70;100304.87;2622786;91;21095;-69
2021/06/18 09:29:51;;;;;;;9.03;6.08;;;;;;;33.31;47.45;100302.66;2574015;92;21058;-69
2021/06/18 09:33:53;;;;;;;6.78;6.10;;;;;;;33.33;47.36;100299.08;2615122;91;21061;-69
2021/06/18 09:37:59;;;;;;;7.42;6.03;;;;;;;33.32;46.82;100293.83;2614827;91;21033;-69
2021/06/18 09:42:01;;;;;;;8.85;6.05;;;;;;;33.22;46.74;100289.16;2597616;90;21086;-69
2021/06/18 09:46:07;;;;;;;6.78;6.05;;;;;;;33.23;46.42;100286.68;2621765;90;21065;-69
2021/06/18 09:50:25;;;;;;;12.40;7.15;;;;;;;33.24;47.13;100291.08;2604807;91;21037;-69
2021/06/18 09:54:23;;;;;;;37.47;10.30;;;;;;;33.32;46.85;100286.40;2647898;90;21056;-69
2021/06/18 09:58:44;;;;;;;7.20;5.30;;;;;;;33.40;47.39;100275.33;2648644;89;21040;-69
2021/06/18 10:02:54;;;;;;;6.08;5.47;;;;;;;33.48;46.13;100284.98;2648494;90;21021;-69
2021/06/18 10:06:56;;;;;;;11.43;6.70;;;;;;;33.38;47.15;100283.05;2648678;90;21072;-69
2021/06/18 10:10:59;;;;;;;15.68;7.28;;;;;;;33.42;47.91;100281.95;2648739;90;21069;-69
2021/06/18 10:15:08;;;;;;;8.48;6.45;;;;;;;33.50;46.53;100287.48;2648660;89;21432;-69
2021/06/18 10:19:10;;;;;;;8.33;6.20;;;;;;;33.34;47.58;100283.34;2648867;90;21024;-69
2021/06/18 10:23:16;;;;;;;12.13;7.53;;;;;;;33.32;47.64;100279.52;2648662;90;21084;-69
2021/06/18 10:27:33;;;;;;;7.83;6.65;;;;;;;33.34;47.43;100275.08;2648611;90;21037;-69
2021/06/18 10:31:36;;;;;;;12.73;7.72;;;;;;;33.53;46.91;100277.27;2638676;90;21067;-69
2021/06/18 10:40:11;;;;;;;8.45;6.30;;;;;;;33.60;45.90;100280.53;2648532;90;21061;-69
2021/06/18 10:44:44;;;;;;;8.30;6.90;;;;;;;33.61;45.99;100272.56;2648664;90;21032;-69
2021/06/18 10:48:56;;;;;;;11.00;7.03;;;;;;;33.58;46.42;100269.80;2651932;89;21099;-69
2021/06/18 10:53:03;;;;;;;10.35;7.10;;;;;;;33.49;46.65;100262.40;2657636;89;21012;-69
2021/06/18 10:57:54;;;;;;;6.80;6.15;;;;;;;33.31;46.15;100257.19;2652555;89;21032;-69
2021/06/18 11:01:56;;;;;;;9.90;8.18;;;;;;;33.16;46.31;100250.33;2657867;89;21071;-69
2021/06/18 11:06:46;;;;;;;7.87;6.17;;;;;;;33.27;47.23;100253.31;2657742;89;21025;-69
2021/06/18 11:10:49;;;;;;;6.35;5.75;;;;;;;33.31;46.91;100255.81;2657732;89;21060;-69
2021/06/18 11:14:55;;;;;;;9.08;5.25;;;;;;;33.33;47.07;100243.11;2657713;89;20976;-69
2021/06/18 11:19:23;;;;;;;5.83;5.33;;;;;;;33.46;46.60;100238.42;2658102;89;21057;-69
2021/06/18 11:23:32;;;;;;;5.65;4.72;;;;;;;33.40;46.32;100240.87;2658112;89;21040;-65
2021/06/18 11:27:41;;;;;;;8.80;6.30;;;;;;;33.41;45.95;100240.34;2657368;89;21017;-68
2021/06/18 11:31:43;;;;;;;9.00;5.58;;;;;;;33.46;45.94;100241.18;2657848;89;21112;-68
2021/06/18 11:35:45;;;;;;;6.72;5.87;;;;;;;33.51;45.18;100232.08;2657684;89;21044;-68
2021/06/18 11:39:47;;;;;;;5.15;4.75;;;;;;;33.42;44.82;100238.69;2657799;89;21099;-68
2021/06/18 11:43:54;;;;;;;7.08;5.50;;;;;;;33.36;44.73;100235.66;2657786;89;21049;-68
2021/06/18 11:47:56;;;;;;;10.25;6.58;;;;;;;33.30;45.08;100237.59;2658705;89;21088;-68
2021/06/18 11:52:02;;;;;;;5.40;4.90;;;;;;;33.26;45.78;100232.38;2666621;89;21095;-68
2021/06/18 11:56:16;;;;;;;11.45;5.28;;;;;;;33.33;45.36;100228.80;2666794;89;21076;-68
2021/06/18 12:00:19;;;;;;;11.10;6.05;;;;;;;33.46;45.41;100224.64;2667008;89;21068;-68
2021/06/18 12:04:20;;;;;;;12.13;6.60;;;;;;;33.53;44.51;100219.37;2645984;89;21032;-68
2021/06/18 12:08:22;;;;;;;11.18;4.95;;;;;;;33.50;44.31;100218.56;2666840;89;21165;-68
2021/06/18 12:12:23;;;;;;;7.55;4.95;;;;;;;33.43;45.27;100206.45;2666830;89;21071;-68
2021/06/18 12:16:36;;;;;;;6.65;5.58;;;;;;;33.38;45.31;100210.02;2666478;89;21051;-68
2021/06/18 12:20:41;;;;;;;5.55;5.00;;;;;;;33.39;45.80;100207.53;2666510;89;21067;-67
2021/06/18 12:25:13;;;;;;;5.87;5.03;;;;;;;33.44;45.00;100206.19;2666868;89;21043;-68
2021/06/18 12:29:15;;;;;;;6.17;5.58;;;;;;;33.42;44.63;100204.77;2666877;89;20992;-68
2021/06/18 12:33:17;;;;;;;6.12;5.37;;;;;;;33.40;44.99;100205.04;2666690;89;21071;-68
2021/06/18 12:37:29;;;;;;;7.83;5.80;;;;;;;33.37;44.35;100208.37;2666658;87;21032;-68
2021/06/18 12:41:31;;;;;;;6.12;5.55;;;;;;;33.41;44.56;100201.20;2666937;89;21040;-68
2021/06/18 12:45:50;;;;;;;8.48;7.10;;;;;;;33.50;45.92;100207.53;2666680;89;21095;-68
2021/06/18 12:49:52;;;;;;;11.93;6.15;;;;;;;33.66;46.08;100206.90;2662210;89;21316;-68
2021/06/18 12:54:04;;;;;;;5.53;4.70;;;;;;;33.73;45.18;100202.73;2657814;89;21071;-68
2021/06/18 12:58:15;;;;;;;6.60;5.65;;;;;;;33.75;44.77;100194.98;2657569;89;20977;-69
2021/06/18 13:02:16;;;;;;;6.30;5.45;;;;;;;33.76;44.86;100195.26;2657482;88;21092;-69
2021/06/18 13:06:26;;;;;;;9.15;5.78;;;;;;;33.76;44.21;100187.55;2656896;89;21018;-68
2021/06/18 13:10:41;;;;;;;9.18;6.05;;;;;;;33.80;44.16;100191.93;2657215;89;21114;-69
2021/06/18 13:14:44;;;;;;;6.03;5.12;;;;;;;33.81;43.38;100189.47;2657182;89;21053;-69
2021/06/18 13:19:01;;;;;;;8.18;4.80;;;;;;;33.69;44.50;100150.64;2685673;86;21029;-70
2021/06/18 13:23:25;;;;;;;7.12;5.55;;;;;;;33.79;44.54;100180.63;2701783;86;21032;-69
2021/06/18 13:27:30;;;;;;;6.03;5.28;;;;;;;33.82;44.63;100187.79;2684603;88;21567;-70
2021/06/18 13:31:35;;;;;;;7.03;4.85;;;;;;;33.85;43.86;100185.03;2684352;88;21008;-69
2021/06/18 13:35:42;;;;;;;10.85;6.10;;;;;;;33.89;43.89;100173.69;2701584;88;21055;-69
2021/06/18 13:40:14;;;;;;;8.60;6.87;;;;;;;33.99;43.31;100172.25;2701010;88;21075;-69
2021/06/18 13:44:28;;;;;;;10.78;7.62;;;;;;;34.06;44.28;100175.27;2701312;88;21044;-69
2021/06/18 13:48:31;;;;;;;10.67;5.63;;;;;;;34.13;45.54;100171.61;2700832;87;21119;-69
2021/06/18 13:52:34;;;;;;;7.97;5.05;;;;;;;34.17;44.95;100169.92;2696104;88;21083;-69
2021/06/18 13:56:47;;;;;;;7.58;5.78;;;;;;;34.17;44.55;100168.00;2695872;88;21385;-69
2021/06/18 14:00:49;;;;;;;5.95;5.17;;;;;;;34.22;44.73;100171.28;2695777;88;21044;-69
2021/06/18 14:04:54;;;;;;;6.08;4.62;;;;;;;34.25;45.03;100172.08;2682549;88;21032;-69
2021/06/18 14:08:55;;;;;;;6.17;4.33;;;;;;;34.27;44.52;100164.34;2671637;89;21072;-69
2021/06/18 14:12:57;;;;;;;7.97;6.92;;;;;;;34.22;43.69;100161.63;2671659;87;21008;-69
2021/06/18 14:17:10;;;;;;;6.03;5.37;;;;;;;34.22;43.52;100151.97;2671656;89;21040;-69
2021/06/18 14:21:16;;;;;;;7.97;6.65;;;;;;;34.25;44.31;100147.24;2671429;87;21036;-69
2021/06/18 14:25:19;;;;;;;7.05;5.45;;;;;;;34.21;43.71;100146.18;2671582;89;21021;-70
2021/06/18 14:29:20;;;;;;;5.92;5.25;;;;;;;34.19;44.10;100140.09;2671622;89;21047;-69
2021/06/18 14:33:22;;;;;;;14.00;6.65;;;;;;;34.28;44.74;100143.06;2675992;88;21032;-69
2021/06/18 14:37:29;;;;;;;5.70;5.30;;;;;;;34.19;44.12;100140.09;2695507;88;21083;-68
2021/06/18 14:41:31;;;;;;;6.47;5.75;;;;;;;34.21;44.44;100142.05;2695876;88;21048;-70
2021/06/18 14:45:45;;;;;;;6.55;5.35;;;;;;;34.20;45.00;100141.78;2695641;88;21063;-69
2021/06/18 14:49:47;;;;;;;20.92;8.45;;;;;;;34.11;45.64;100137.43;2696636;88;21044;-69
2021/06/18 14:53:49;;;;;;;6.22;5.62;;;;;;;34.18;44.83;100138.45;2698721;87;21052;-69
2021/06/18 14:57:53;;;;;;;5.85;4.85;;;;;;;34.26;43.87;100134.25;2698963;88;21052;-69
2021/06/18 15:01:55;;;;;;;9.00;5.43;;;;;;;34.21;45.41;100132.38;2713984;88;21043;-70
2021/06/18 15:05:58;;;;;;;7.55;5.05;;;;;;;34.10;44.21;100130.27;2715900;87;21020;-69
2021/06/18 15:10:00;;;;;;;5.50;4.62;;;;;;;34.09;43.55;100123.07;2716810;87;21067;-69
2021/06/18 15:14:03;;;;;;;8.23;5.20;;;;;;;34.04;43.63;100116.22;2680274;87;20997;-70
2021/06/18 15:18:05;;;;;;;5.08;4.58;;;;;;;34.10;43.31;100110.95;2672783;89;21040;-71
2021/06/18 15:22:07;;;;;;;7.08;6.08;;;;;;;34.03;43.28;100109.89;2672826;89;21056;-69
2021/06/18 15:26:10;;;;;;;5.17;4.47;;;;;;;34.00;44.21;100114.61;2672829;89;21025;-70
2021/06/18 15:30:13;;;;;;;8.25;5.53;;;;;;;34.01;45.33;100103.00;2658224;89;21053;-69
2021/06/18 15:34:16;;;;;;;8.55;6.33;;;;;;;34.06;45.20;100102.16;2680309;88;21043;-70
2021/06/18 15:38:20;;;;;;;6.97;5.37;;;;;;;34.06;45.60;100100.20;2713468;88;21056;-70
2021/06/18 15:42:23;;;;;;;7.92;6.30;;;;;;;34.05;46.58;100095.80;2713673;86;21107;-70
2021/06/18 15:46:32;;;;;;;8.35;6.30;;;;;;;34.07;47.00;100092.76;2713535;88;21075;-70
2021/06/18 15:50:35;;;;;;;10.08;6.50;;;;;;;33.95;46.66;100096.67;2684744;88;21065;-70
2021/06/18 15:54:39;;;;;;;7.28;6.00;;;;;;;33.93;46.51;100089.24;2658642;89;21055;-70
2021/06/18 15:58:41;;;;;;;7.35;5.72;;;;;;;33.89;46.98;100086.80;2658609;89;21089;-70
2021/06/18 16:02:43;;;;;;;5.87;5.28;;;;;;;33.78;46.33;100085.22;2672668;89;21060;-70
2021/06/18 16:06:58;;;;;;;8.20;6.50;;;;;;;33.65;46.18;100084.77;2682800;86;21037;-70
2021/06/18 16:11:01;;;;;;;9.50;6.70;;;;;;;33.65;46.50;100084.77;2681470;86;21046;-70
2021/06/18 16:15:09;;;;;;;9.80;6.17;;;;;;;33.63;47.96;100082.02;2655936;89;21109;-70
2021/06/18 16:19:15;;;;;;;10.18;6.83;;;;;;;33.56;48.13;100081.79;2656195;89;21085;-70
2021/06/18 16:23:15;;;;;;;10.93;5.83;;;;;;;33.39;48.31;100073.84;2656325;88;21034;-70
2021/06/18 16:27:18;;;;;;;5.92;5.37;;;;;;;33.26;48.77;100075.30;2656159;89;21050;-70
2021/06/18 16:31:20;;;;;;;6.95;4.72;;;;;;;33.17;48.83;100083.91;2656108;89;21058;-70
2021/06/18 16:35:40;;;;;;;6.78;5.62;;;;;;;33.01;49.36;100078.99;2696979;88;21017;-70
2021/06/18 16:39:43;;;;;;;5.58;5.08;;;;;;;32.87;49.35;100087.01;2688382;88;21040;-70
2021/06/18 16:43:46;;;;;;;11.18;5.35;;;;;;;32.67;49.42;100081.84;2698349;87;21073;-69
2021/06/18 16:47:49;;;;;;;6.83;5.78;;;;;;;32.55;50.02;100084.89;2715279;87;21069;-70
2021/06/18 16:51:51;;;;;;;8.17;5.97;;;;;;;32.42;50.89;100078.58;2692591;87;21062;-69
2021/06/18 16:55:56;;;;;;;6.03;5.42;;;;;;;32.25;51.52;100077.48;2690096;88;21051;-69
2021/06/18 16:59:58;;;;;;;8.58;6.67;;;;;;;32.07;52.78;100078.88;2689959;88;21057;-69
2021/06/18 17:04:14;;;;;;;6.83;6.10;;;;;;;31.92;53.00;100084.64;2684792;88;21038;-69
2021/06/18 17:08:21;;;;;;;5.60;5.10;;;;;;;31.73;53.15;100086.52;2689923;88;21031;-69
2021/06/18 17:12:44;;;;;;;6.67;6.05;;;;;;;31.58;53.82;100087.86;2689995;88;21070;-68
2021/06/18 17:16:48;;;;;;;7.20;6.47;;;;;;;31.43;54.23;100084.53;2689836;88;21038;-69
2021/06/18 17:20:50;;;;;;;6.35;5.28;;;;;;;31.29;54.34;100091.09;2695325;88;21020;-70
2021/06/18 17:24:58;;;;;;;7.58;5.80;;;;;;;31.17;54.51;100090.73;2695017;88;21040;-69
2021/06/18 17:29:00;;;;;;;11.20;5.22;;;;;;;31.05;54.87;100087.38;2695403;88;21645;-69
2021/06/18 17:33:01;;;;;;;7.25;5.72;;;;;;;30.91;55.10;100087.87;2694741;88;21027;-70
2021/06/18 17:37:24;;;;;;;6.90;6.20;;;;;;;30.81;55.34;100086.44;2636748;90;21053;-69
2021/06/18 17:41:31;;;;;;;6.87;6.28;;;;;;;30.67;55.51;100083.35;2614159;91;21064;-69
2021/06/18 17:45:30;;;;;;;6.70;6.08;;;;;;;30.52;55.90;100085.96;2641873;90;21048;-71
2021/06/18 17:49:34;;;;;;;7.50;5.30;;;;;;;30.34;56.48;100085.29;2675936;88;21084;-69
2021/06/18 17:53:36;;;;;;;5.70;5.17;;;;;;;30.22;56.42;100089.59;2700862;88;21040;-69
2021/06/18 17:57:42;;;;;;;8.48;5.35;;;;;;;30.10;56.46;100091.70;2700749;88;21040;-69
2021/06/18 18:01:44;;;;;;;6.67;6.08;;;;;;;29.91;56.63;100091.50;2700346;88;21115;-71
2021/06/18 18:05:46;;;;;;;7.47;5.75;;;;;;;29.75;56.56;100091.91;2699510;88;20988;-72
2021/06/18 18:09:48;;;;;;;11.88;6.35;;;;;;;29.62;56.90;100097.79;2699518;88;21084;-72
2021/06/18 18:13:52;;;;;;;8.40;6.20;;;;;;;29.45;56.87;100100.07;2699548;88;21110;-72
2021/06/18 18:17:54;;;;;;;;;;;;;;;29.30;56.98;100097.95;2687834;88;21044;-72
2021/06/18 18:21:57;;;;;;;6.28;5.67;;;;;;;29.15;57.31;100104.09;2654678;89;20130;-71
2021/06/18 18:25:59;;;;;;;11.70;7.17;;;;;;;28.87;57.28;100078.52;2641385;89;21104;-72
2021/06/18 18:30:01;;;;;;;10.58;5.80;;;;;;;28.84;57.83;100103.67;2654947;89;21052;-72
2021/06/18 18:34:07;;;;;;;24.40;10.80;;;;;;;28.72;58.00;100105.67;2668759;89;21140;-72
2021/06/18 18:38:10;;;;;;;17.07;7.62;;;;;;;28.61;57.87;100101.95;2669417;89;21000;-72
2021/06/18 18:42:12;;;;;;;9.35;6.50;;;;;;;28.42;58.32;100102.75;2669486;89;21052;-72
2021/06/18 18:46:14;;;;;;;10.68;7.00;;;;;;;28.17;59.04;100113.56;2669117;89;21060;-72
2021/06/18 18:50:19;;;;;;;26.10;9.43;;;;;;;27.87;60.12;100108.66;2694344;87;21160;-72
2021/06/18 18:54:33;;;;;;;9.43;7.50;;;;;;;27.61;61.10;100110.92;2698946;87;21074;-73
2021/06/18 18:59:13;;;;;;;22.73;9.23;;;;;;;27.38;62.03;100109.06;2698525;87;21069;-72